Time;durP1;ratioP1;P1;durP2;ratioP2;P2;SDS_P1;SDS_P2;PMS_P1;PMS_P2;Temp;Humidity;BMP_temperature;BMP_pressure;BME280_temperature;BME280_humidity;BME280_pressure;Samples;Min_cycle;Max_cycle;Signal;HPM_P1;HPM_P2
2022/12/06 00:01:14;;;;;;;21.65;9.63;;;;;;;4.88;100.00;101877.66;5069421;28;20033;-72
2022/12/06 00:03:41;;;;;;;24.63;8.70;;;;;;;4.89;100.00;101875.84;5080426;28;20467;-72
2022/12/06 00:06:13;;;;;;;21.38;8.55;;;;;;;4.89;100.00;101873.19;5081723;28;20111;-72
2022/12/06 00:08:39;;;;;;;19.80;8.32;;;;;;;4.90;100.00;101869.59;5082273;28;20048;-72
2022/12/06 00:11:07;;;;;;;20.95;7.93;;;;;;;4.89;100.00;101873.19;5075665;28;20021;-72
2022/12/06 00:13:33;;;;;;;21.05;7.38;;;;;;;4.89;100.00;101870.53;5077825;28;20024;-72
2022/12/06 00:16:00;;;;;;;19.17;7.97;;;;;;;4.89;100.00;101867.84;5079864;28;20028;-72
2022/12/06 00:18:25;;;;;;;23.77;10.52;;;;;;;4.88;100.00;101875.00;5067758;28;20059;-72
2022/12/06 00:20:51;;;;;;;24.27;10.65;;;;;;;4.90;100.00;101873.16;5071098;28;20761;-72
2022/12/06 00:23:16;;;;;;;23.38;9.77;;;;;;;4.90;100.00;101870.50;5080470;28;20040;-72
2022/12/06 00:25:41;;;;;;;23.55;8.25;;;;;;;4.91;100.00;101876.69;5079359;28;20021;-72
2022/12/06 00:28:07;;;;;;;19.95;7.75;;;;;;;4.92;100.00;101872.22;5080649;28;20476;-72
2022/12/06 00:30:32;;;;;;;21.50;7.32;;;;;;;4.92;100.00;101872.22;5078885;28;20051;-72
2022/12/06 00:32:57;;;;;;;19.42;7.38;;;;;;;4.90;100.00;101866.94;5077822;28;20040;-72
2022/12/06 00:35:22;;;;;;;17.83;6.75;;;;;;;4.89;100.00;101863.44;5080485;28;20064;-72
2022/12/06 00:37:48;;;;;;;17.67;6.80;;;;;;;4.88;100.00;101867.00;5069789;28;20107;-72
2022/12/06 00:40:13;;;;;;;19.48;7.65;;;;;;;4.90;100.00;101867.84;5079617;28;20062;-73
2022/12/06 00:42:38;;;;;;;20.02;7.75;;;;;;;4.91;100.00;101866.03;5080087;28;20505;-72
2022/12/06 00:45:04;;;;;;;18.98;7.22;;;;;;;4.92;100.00;101869.56;5077756;28;20339;-72
2022/12/06 00:47:29;;;;;;;19.02;7.47;;;;;;;4.92;100.00;101866.91;5080144;28;20108;-72
2022/12/06 00:49:55;;;;;;;20.40;7.85;;;;;;;4.92;100.00;101869.56;5069132;28;20035;-73
2022/12/06 00:52:20;;;;;;;17.10;6.18;;;;;;;4.89;100.00;101868.75;5078130;28;20056;-72
2022/12/06 00:54:45;;;;;;;18.63;6.78;;;;;;;4.89;100.00;101874.09;5069480;28;20032;-72
2022/12/06 00:57:11;;;;;;;18.60;6.75;;;;;;;4.89;100.00;101868.75;5083488;28;20043;-72
2022/12/06 00:59:36;;;;;;;19.63;7.25;;;;;;;4.90;100.00;101873.16;5084173;28;20031;-73
2022/12/06 01:02:01;;;;;;;20.42;7.65;;;;;;;4.89;100.00;101871.41;5080395;28;20048;-72
2022/12/06 01:04:27;;;;;;;18.83;6.97;;;;;;;4.89;100.00;101870.53;5081638;28;20036;-72
2022/12/06 01:06:52;;;;;;;20.33;7.07;;;;;;;4.90;100.00;101869.59;5081837;28;20035;-72
2022/12/06 01:09:17;;;;;;;20.00;7.25;;;;;;;4.90;100.00;101866.94;5080887;28;20036;-73
2022/12/06 01:11:43;;;;;;;19.17;6.55;;;;;;;4.90;100.00;101865.19;5073468;28;20029;-73
2022/12/06 01:14:08;;;;;;;16.90;6.13;;;;;;;4.90;100.00;101870.50;5079735;28;20093;-73
2022/12/06 01:16:34;;;;;;;16.77;5.82;;;;;;;4.90;100.00;101870.50;5079319;28;20021;-72
2022/12/06 01:19:01;;;;;;;19.50;7.07;;;;;;;4.88;100.00;101869.66;5081782;28;20097;-72
2022/12/06 01:21:27;;;;;;;18.52;6.63;;;;;;;4.89;100.00;101874.09;5081555;28;20032;-72
2022/12/06 01:23:53;;;;;;;20.38;7.18;;;;;;;4.89;100.00;101873.19;5079053;28;22284;-73
2022/12/06 01:26:25;;;;;;;18.38;6.22;;;;;;;4.89;100.00;101867.84;5080185;28;20038;-73
2022/12/06 01:28:51;;;;;;;19.25;6.55;;;;;;;4.90;100.00;101873.16;5077620;28;20024;-72
2022/12/06 01:31:16;;;;;;;19.70;6.60;;;;;;;4.90;100.00;101864.28;5073297;28;20031;-73
2022/12/06 01:33:43;;;;;;;18.83;6.50;;;;;;;4.89;100.00;101874.09;5071730;28;20016;-73
2022/12/06 01:36:18;;;;;;;18.92;6.95;;;;;;;4.90;100.00;101872.28;5076402;28;20025;-72
2022/12/06 01:38:43;;;;;;;17.10;6.00;;;;;;;4.89;100.00;101874.09;5072829;28;20032;-72
2022/12/06 01:41:09;;;;;;;17.05;6.78;;;;;;;4.87;100.00;101881.22;5079241;28;20062;-72
2022/12/06 01:43:41;;;;;;;20.15;7.13;;;;;;;4.88;100.00;101872.31;5079260;28;20082;-72
2022/12/06 01:46:19;;;;;;;17.15;6.40;;;;;;;4.88;100.00;101868.81;5078774;28;20048;-73
2022/12/06 01:48:46;;;;;;;20.25;7.10;;;;;;;4.87;100.00;101867.91;5080557;28;20610;-73
2022/12/06 01:51:14;;;;;;;19.10;7.88;;;;;;;4.88;100.00;101866.13;5081660;28;20044;-72
2022/12/06 01:53:42;;;;;;;17.20;6.13;;;;;;;4.88;100.00;101867.00;5077858;28;20388;-72
2022/12/06 01:56:08;;;;;;;20.40;7.32;;;;;;;4.88;100.00;101864.34;5081229;28;20047;-73
2022/12/06 01:58:37;;;;;;;19.48;7.20;;;;;;;4.89;100.00;101866.09;5079256;28;20135;-73
2022/12/06 02:01:03;;;;;;;17.20;6.75;;;;;;;4.87;100.00;101856.41;5072856;28;20088;-73
2022/12/06 02:03:32;;;;;;;20.05;7.20;;;;;;;4.85;100.00;101858.25;5067713;28;20055;-73
2022/12/06 02:05:59;;;;;;;18.67;6.38;;;;;;;4.85;100.00;101855.59;5080144;28;20020;-72
2022/12/06 02:08:26;;;;;;;18.83;6.63;;;;;;;4.85;100.00;101864.44;5068393;28;20127;-73
2022/12/06 02:10:51;;;;;;;20.17;6.70;;;;;;;4.85;100.00;101861.78;5078126;28;20032;-73
2022/12/06 02:13:17;;;;;;;19.08;6.80;;;;;;;4.86;100.00;101858.19;5065419;28;20472;-73
2022/12/06 02:16:04;;;;;;;18.35;6.15;;;;;;;4.90;100.00;101862.50;5077588;28;20029;-73
2022/12/06 02:18:45;;;;;;;19.42;7.18;;;;;;;4.89;100.00;101862.53;5075254;28;20058;-73
2022/12/06 02:21:26;;;;;;;17.63;6.00;;;;;;;4.92;100.00;101866.91;5062941;28;20073;-73
2022/12/06 02:24:19;;;;;;;14.48;5.88;;;;;;;4.92;100.00;101864.22;5075622;28;20032;-73
2022/12/06 02:26:50;;;;;;;16.92;5.85;;;;;;;4.90;100.00;101858.97;5078026;28;20032;-73
2022/12/06 02:29:36;;;;;;;18.98;6.72;;;;;;;4.89;100.00;101859.88;5078084;28;20059;-73
2022/12/06 02:32:09;;;;;;;17.38;5.63;;;;;;;4.89;100.00;101858.09;5075746;28;20032;-73
2022/12/06 02:35:00;;;;;;;16.63;5.38;;;;;;;4.88;100.00;101853.69;5067156;28;20056;-73
2022/12/06 02:37:33;;;;;;;17.77;5.72;;;;;;;4.86;100.00;101851.97;5077131;28;20052;-73
2022/12/06 02:40:06;;;;;;;16.52;5.82;;;;;;;4.88;100.00;101858.16;5075390;28;20061;-73
2022/12/06 02:42:38;;;;;;;16.65;5.22;;;;;;;4.88;100.00;101853.69;5074306;28;20024;-73
2022/12/06 02:45:11;;;;;;;16.40;5.22;;;;;;;4.89;100.00;101846.56;5077009;28;20058;-73
2022/12/06 02:47:37;;;;;;;17.08;5.60;;;;;;;4.90;100.00;101851.84;5077306;28;20032;-73
2022/12/06 02:50:09;;;;;;;18.25;5.70;;;;;;;4.89;100.00;101842.13;5071252;28;20449;-73
2022/12/06 02:52:39;;;;;;;17.95;5.90;;;;;;;4.90;100.00;101851.84;5062149;28;20048;-73
2022/12/06 02:55:07;;;;;;;19.42;6.53;;;;;;;4.90;100.00;101846.53;5076559;28;20173;-73
2022/12/06 02:57:40;;;;;;;17.23;5.97;;;;;;;4.90;100.00;101849.19;5076735;28;20500;-73
2022/12/06 03:00:38;;;;;;;18.63;5.97;;;;;;;4.95;100.00;101846.38;5075298;28;20027;-73
2022/12/06 03:03:15;;;;;;;20.92;6.95;;;;;;;4.93;100.00;101842.00;5075388;28;20100;-73
2022/12/06 03:06:00;;;;;;;17.50;5.90;;;;;;;4.95;100.00;101849.03;5075528;28;20444;-73
2022/12/06 03:08:52;;;;;;;17.80;5.40;;;;;;;4.95;100.00;101846.38;5028318;28;20036;-73
2022/12/06 03:11:18;;;;;;;17.17;5.28;;;;;;;4.91;100.00;101839.41;5064406;28;20023;-73
2022/12/06 03:14:16;;;;;;;15.57;5.15;;;;;;;4.93;100.00;101842.88;5073708;28;20051;-73
2022/12/06 03:16:50;;;;;;;19.08;5.80;;;;;;;4.90;100.00;101849.19;5059519;28;20036;-73
2022/12/06 03:19:18;;;;;;;17.90;5.78;;;;;;;4.91;100.00;101850.06;5075478;28;20013;-73
2022/12/06 03:22:02;;;;;;;17.38;6.13;;;;;;;4.89;100.00;101847.44;5072993;28;20035;-73
2022/12/06 03:24:30;;;;;;;16.55;5.82;;;;;;;4.89;100.00;101850.09;5065440;28;20027;-73
2022/12/06 03:26:58;;;;;;;18.38;6.55;;;;;;;4.87;100.00;101857.25;5074002;28;20032;-73
2022/12/06 03:29:26;;;;;;;19.02;6.80;;;;;;;4.85;100.00;101855.59;5065230;28;20036;-73
2022/12/06 03:31:54;;;;;;;18.65;5.68;;;;;;;4.85;100.00;101852.94;5059441;28;20159;-73
2022/12/06 03:34:25;;;;;;;19.90;7.18;;;;;;;4.84;100.00;101857.38;5072980;28;20032;-73
2022/12/06 03:36:52;;;;;;;18.73;5.82;;;;;;;4.83;100.00;101852.09;5074536;28;20096;-73
2022/12/06 03:39:39;;;;;;;20.88;7.75;;;;;;;4.86;100.00;101846.66;5074469;28;20025;-73
2022/12/06 03:42:05;;;;;;;22.65;7.00;;;;;;;4.84;100.00;101854.69;5074527;28;20036;-73
2022/12/06 03:44:30;;;;;;;24.95;6.97;;;;;;;4.83;100.00;101847.66;5071126;28;20024;-73
2022/12/06 03:47:03;;;;;;;20.15;6.88;;;;;;;4.83;100.00;101850.31;5074692;28;20066;-73
2022/12/06 03:49:41;;;;;;;19.70;6.63;;;;;;;4.82;100.00;101851.22;5076458;28;20024;-73
2022/12/06 03:52:08;;;;;;;22.63;7.35;;;;;;;4.83;100.00;101847.66;5074167;28;20052;-73
2022/12/06 03:54:33;;;;;;;21.92;7.72;;;;;;;4.82;100.00;101856.56;5073140;28;20035;-73
2022/12/06 03:56:59;;;;;;;19.17;6.55;;;;;;;4.80;100.00;101852.19;5073067;28;20033;-73
2022/12/06 03:59:24;;;;;;;20.73;7.57;;;;;;;4.83;100.00;101847.66;5057270;28;20028;-73
2022/12/06 04:01:49;;;;;;;22.75;7.68;;;;;;;4.81;100.00;101857.47;5072608;28;20020;-73
2022/12/06 04:04:15;;;;;;;21.88;8.02;;;;;;;4.83;100.00;101852.97;5072667;28;20028;-73
2022/12/06 04:06:40;;;;;;;22.38;8.02;;;;;;;4.81;100.00;101852.13;5069403;28;20039;-73
2022/12/06 04:11:49;;;;;;;19.52;6.90;;;;;;;4.80;100.00;101845.09;5075888;28;20085;-73
2022/12/06 04:14:14;;;;;;;20.27;6.90;;;;;;;4.80;100.00;101842.44;5071647;28;20535;-73
2022/12/06 04:19:24;;;;;;;20.08;7.65;;;;;;;4.79;100.00;101848.66;5067211;28;20031;-73
2022/12/06 04:24:49;;;;;;;18.90;7.22;;;;;;;4.81;100.00;101848.63;4985636;28;20025;-73
2022/12/06 04:40:54;;;;;;;23.13;7.80;;;;;;;4.80;100.00;101854.84;4989270;28;20065;-73
2022/12/06 04:46:03;;;;;;;20.98;8.30;;;;;;;4.77;100.00;101858.47;4994215;28;20073;-73
2022/12/06 04:48:29;;;;;;;22.48;8.55;;;;;;;4.79;100.00;101850.44;4992725;28;20038;-73
2022/12/06 04:50:54;;;;;;;20.13;7.07;;;;;;;4.78;100.00;101846.91;4994574;28;20196;-73
2022/12/06 04:53:19;;;;;;;19.75;8.02;;;;;;;4.77;100.00;101850.50;4986806;28;20046;-73
2022/12/06 04:55:47;;;;;;;19.38;7.38;;;;;;;4.78;100.00;101851.38;4995019;28;20061;-73
2022/12/06 04:58:13;;;;;;;21.05;7.47;;;;;;;4.77;100.00;101847.84;5004838;28;20033;-73
2022/12/06 05:00:42;;;;;;;20.80;8.15;;;;;;;4.78;100.00;101848.72;5071666;28;20491;-73
2022/12/06 05:03:11;;;;;;;23.00;7.07;;;;;;;4.77;100.00;101842.50;5070640;28;20380;-73
2022/12/06 05:05:36;;;;;;;22.50;7.38;;;;;;;4.77;100.00;101839.84;5073602;28;20480;-73
2022/12/06 05:08:02;;;;;;;20.50;8.50;;;;;;;4.77;100.00;101842.50;5072995;28;20020;-73
2022/12/06 05:10:27;;;;;;;20.58;7.35;;;;;;;4.80;100.00;101852.19;5075614;28;20095;-73
2022/12/06 05:12:52;;;;;;;23.00;7.90;;;;;;;4.79;100.00;101845.13;5064036;28;20399;-73
2022/12/06 05:15:18;;;;;;;23.20;8.00;;;;;;;4.79;100.00;101843.34;5075280;28;20027;-73
2022/12/06 05:17:43;;;;;;;21.63;8.60;;;;;;;4.79;100.00;101840.69;5074359;28;20039;-73
2022/12/06 05:20:09;;;;;;;19.17;7.43;;;;;;;4.79;100.00;101840.69;5072476;28;20451;-73
2022/12/06 05:22:34;;;;;;;23.38;8.13;;;;;;;4.78;100.00;101843.41;5074384;28;20028;-73
2022/12/06 05:24:59;;;;;;;20.23;7.80;;;;;;;4.78;100.00;101846.06;5077137;28;20111;-73
2022/12/06 05:27:24;;;;;;;21.05;7.95;;;;;;;4.77;100.00;101837.19;5074505;28;20030;-73
2022/12/06 05:29:50;;;;;;;20.20;7.15;;;;;;;4.78;100.00;101838.94;5073176;28;20028;-73
2022/12/06 05:32:15;;;;;;;20.83;6.38;;;;;;;4.75;100.00;101841.69;5068370;28;20039;-73
2022/12/06 05:34:40;;;;;;;20.88;7.93;;;;;;;4.76;100.00;101843.44;5075006;28;20080;-73
2022/12/06 05:37:06;;;;;;;20.83;7.28;;;;;;;4.76;100.00;101831.91;5074971;28;20035;-73
2022/12/06 05:39:31;;;;;;;20.25;6.93;;;;;;;4.77;100.00;101841.66;5073809;28;20094;-73
2022/12/06 05:41:56;;;;;;;19.80;6.68;;;;;;;4.76;100.00;101840.78;5072559;28;20037;-73
2022/12/06 05:44:21;;;;;;;23.98;7.43;;;;;;;4.76;100.00;101840.78;5074512;28;20040;-73
2022/12/06 05:46:47;;;;;;;22.95;7.63;;;;;;;4.76;100.00;101845.22;5075540;28;20383;-73
2022/12/06 05:49:12;;;;;;;19.70;7.43;;;;;;;4.73;100.00;101846.22;5073397;28;20107;-73
2022/12/06 05:51:37;;;;;;;22.95;6.78;;;;;;;4.71;100.00;101840.94;5075192;28;20056;-73
2022/12/06 05:54:05;;;;;;;18.15;6.53;;;;;;;4.70;100.00;101840.97;5060981;28;20088;-73
2022/12/06 05:56:31;;;;;;;18.80;6.55;;;;;;;4.67;100.00;101844.63;5073306;28;20112;-73
2022/12/06 05:58:56;;;;;;;20.85;6.93;;;;;;;4.69;100.00;101844.56;5075394;28;20032;-73
2022/12/06 06:01:21;;;;;;;18.50;6.28;;;;;;;4.68;100.00;101842.81;5066785;28;20032;-73
2022/12/06 06:03:47;;;;;;;18.48;6.47;;;;;;;4.68;100.00;101841.00;5071093;28;20113;-73
2022/12/06 06:06:13;;;;;;;20.52;6.78;;;;;;;4.68;100.00;101842.81;5071238;28;20020;-73
2022/12/06 06:08:38;;;;;;;17.70;6.15;;;;;;;4.68;100.00;101843.69;5071747;28;20036;-73
2022/12/06 06:11:04;;;;;;;17.98;6.53;;;;;;;4.69;100.00;101841.91;5075511;28;20028;-73
2022/12/06 06:13:29;;;;;;;21.70;6.53;;;;;;;4.68;100.00;101845.47;5073643;28;20028;-73
2022/12/06 06:15:55;;;;;;;17.67;5.75;;;;;;;4.66;100.00;101842.00;5071317;28;20186;-74
2022/12/06 06:18:20;;;;;;;21.08;7.60;;;;;;;4.66;100.00;101847.34;5071693;28;20113;-73
2022/12/06 06:20:53;;;;;;;18.90;6.75;;;;;;;4.64;100.00;101846.50;5061882;28;20495;-73
2022/12/06 06:23:20;;;;;;;18.35;6.15;;;;;;;4.62;100.00;101840.38;5068923;28;20028;-73
2022/12/06 06:25:46;;;;;;;22.00;7.10;;;;;;;4.61;100.00;101846.59;5068983;28;20399;-73
2022/12/06 06:28:11;;;;;;;18.60;6.90;;;;;;;4.56;100.00;101846.75;5070013;28;20032;-73
2022/12/06 06:30:37;;;;;;;19.15;6.78;;;;;;;4.54;100.00;101846.81;5063765;28;20032;-73
2022/12/06 06:33:02;;;;;;;21.05;6.97;;;;;;;4.53;100.00;101839.72;5069054;28;20036;-74
2022/12/06 06:35:28;;;;;;;19.52;6.75;;;;;;;4.53;100.00;101838.88;5071481;28;20040;-73
2022/12/06 06:37:53;;;;;;;20.85;6.60;;;;;;;4.52;100.00;101847.75;5067707;28;20017;-73
2022/12/06 06:40:18;;;;;;;20.20;6.47;;;;;;;4.49;100.00;101839.88;5074524;28;20539;-73
2022/12/06 06:42:44;;;;;;;19.67;6.85;;;;;;;4.47;100.00;101839.94;5072002;28;20048;-73
2022/12/06 06:45:09;;;;;;;21.02;6.90;;;;;;;4.45;100.00;101848.88;5072494;28;20152;-73
2022/12/06 06:47:35;;;;;;;24.35;7.25;;;;;;;4.43;100.00;101842.75;5072620;28;20036;-73
2022/12/06 06:50:00;;;;;;;23.95;6.57;;;;;;;4.41;100.00;101837.47;5054894;28;20056;-73
2022/12/06 06:52:25;;;;;;;20.35;5.78;;;;;;;4.34;100.00;101839.44;5069396;28;20063;-74
2022/12/06 06:54:50;;;;;;;17.85;5.40;;;;;;;4.26;100.00;101835.28;5065788;28;20426;-73
2022/12/06 06:57:17;;;;;;;19.45;5.63;;;;;;;4.18;100.00;101838.19;5064250;28;20123;-73
2022/12/06 06:59:42;;;;;;;20.27;6.25;;;;;;;4.13;100.00;101835.66;5069957;28;20372;-73
2022/12/06 07:02:13;;;;;;;17.27;5.78;;;;;;;4.07;100.00;101841.19;5071163;28;20035;-73
2022/12/06 07:04:39;;;;;;;17.35;5.60;;;;;;;4.02;100.00;101840.44;5059108;28;20040;-73
2022/12/06 07:07:04;;;;;;;17.58;6.35;;;;;;;3.98;100.00;101836.13;5063563;28;20033;-74
2022/12/06 07:09:29;;;;;;;17.48;6.00;;;;;;;3.94;100.00;101834.47;5072984;28;20032;-73
2022/12/06 07:11:56;;;;;;;18.33;5.88;;;;;;;3.85;100.00;101843.56;5074009;28;20064;-73
2022/12/06 07:14:21;;;;;;;17.98;5.85;;;;;;;3.77;100.00;101843.81;5071627;28;20047;-73
2022/12/06 07:16:46;;;;;;;17.25;5.93;;;;;;;3.71;100.00;101851.97;5071456;28;20028;-73
2022/12/06 07:19:12;;;;;;;16.25;5.72;;;;;;;3.60;100.00;101838.09;5072636;28;20345;-73
2022/12/06 07:21:38;;;;;;;15.85;5.88;;;;;;;3.56;100.00;101844.41;5071925;28;20091;-73
2022/12/06 07:24:04;;;;;;;23.52;6.55;;;;;;;3.53;100.00;101849.81;5068056;28;20412;-73
2022/12/06 07:26:29;;;;;;;16.45;5.35;;;;;;;3.49;100.00;101849.03;5066771;28;20020;-73
2022/12/06 07:28:57;;;;;;;20.98;6.07;;;;;;;3.49;100.00;101849.91;5071950;28;20031;-73
2022/12/06 07:31:25;;;;;;;17.38;5.30;;;;;;;3.47;100.00;101857.06;5068875;28;20460;-73
2022/12/06 07:33:55;;;;;;;18.90;5.10;;;;;;;3.52;100.00;101851.59;5070398;28;20427;-73
2022/12/06 07:36:22;;;;;;;17.83;5.30;;;;;;;3.54;100.00;101851.56;5065860;28;20488;-74
2022/12/06 07:38:49;;;;;;;17.52;5.65;;;;;;;3.55;100.00;101854.19;5062882;28;20043;-73
2022/12/06 07:46:45;;;;;;;20.05;5.50;;;;;;;3.74;100.00;101859.84;5073804;28;20510;-73
2022/12/06 07:49:11;;;;;;;16.23;5.65;;;;;;;3.78;100.00;101852.69;5071694;28;20024;-73
2022/12/06 07:51:38;;;;;;;17.17;5.45;;;;;;;3.83;100.00;101859.56;5072972;28;20045;-73
2022/12/06 07:54:04;;;;;;;17.33;5.35;;;;;;;3.88;100.00;101858.56;5074277;28;20016;-73
2022/12/06 07:56:29;;;;;;;18.73;6.10;;;;;;;3.92;100.00;101868.22;5073425;28;20085;-73
2022/12/06 07:58:54;;;;;;;19.52;5.85;;;;;;;3.94;100.00;101861.94;5063784;28;20091;-73
2022/12/06 08:01:21;;;;;;;18.08;5.75;;;;;;;3.98;100.00;101868.91;5064598;28;20032;-73
2022/12/06 08:03:46;;;;;;;24.58;6.22;;;;;;;4.00;100.00;101866.22;5072832;28;20074;-73
2022/12/06 08:06:11;;;;;;;17.17;5.40;;;;;;;4.03;100.00;101866.97;5070571;28;20028;-73
2022/12/06 08:08:37;;;;;;;22.40;7.03;;;;;;;4.05;100.00;101868.72;5054408;28;20036;-73
2022/12/06 08:11:05;;;;;;;15.85;5.70;;;;;;;4.08;100.00;101874.81;5064637;28;20016;-73
2022/12/06 08:13:31;;;;;;;20.90;6.30;;;;;;;4.10;100.00;101873.00;5073242;28;20077;-75
2022/12/06 08:15:57;;;;;;;17.15;5.75;;;;;;;4.13;100.00;101870.25;5070265;28;20067;-72
2022/12/06 08:18:22;;;;;;;16.60;5.63;;;;;;;4.14;100.00;101865.78;5068649;28;20017;-73
2022/12/06 08:20:48;;;;;;;13.02;4.70;;;;;;;4.15;100.00;101865.75;5074585;28;20503;-73
2022/12/06 08:23:13;;;;;;;17.85;5.75;;;;;;;4.15;100.00;101870.19;5072721;28;20024;-73
2022/12/06 08:25:38;;;;;;;19.17;5.68;;;;;;;4.15;100.00;101872.88;5069967;28;20166;-73
2022/12/06 08:28:04;;;;;;;18.35;6.45;;;;;;;4.17;100.00;101868.34;5073445;28;20046;-73
2022/12/06 08:30:29;;;;;;;17.60;5.82;;;;;;;4.19;100.00;101866.53;5070586;28;20028;-73
2022/12/06 08:32:55;;;;;;;17.10;5.40;;;;;;;4.20;100.00;101869.16;5072359;28;20029;-73
2022/12/06 08:35:20;;;;;;;19.13;5.90;;;;;;;4.19;100.00;101862.06;5071531;28;20039;-73
2022/12/06 08:37:45;;;;;;;18.98;6.47;;;;;;;4.22;100.00;101873.53;5057240;28;20531;-73
2022/12/06 08:40:11;;;;;;;21.40;6.82;;;;;;;4.18;100.00;101864.78;5061594;28;20653;-73
2022/12/06 08:42:36;;;;;;;20.42;6.38;;;;;;;4.17;100.00;101868.34;5070017;28;20108;-73
2022/12/06 08:45:02;;;;;;;18.33;6.10;;;;;;;4.15;100.00;101876.38;5071514;28;20033;-72
2022/12/06 08:47:27;;;;;;;18.52;6.20;;;;;;;4.13;100.00;101872.91;5070303;28;20032;-73
2022/12/06 08:49:53;;;;;;;19.42;5.70;;;;;;;4.11;100.00;101869.41;5070772;28;20407;-74
2022/12/06 08:52:18;;;;;;;18.23;5.85;;;;;;;4.07;100.00;101865.13;5056737;28;20041;-75
2022/12/06 08:54:43;;;;;;;14.60;5.03;;;;;;;4.03;100.00;101874.09;5066136;28;20135;-74
2022/12/06 08:57:09;;;;;;;14.30;4.60;;;;;;;3.97;100.00;101879.59;5070037;28;20032;-75
2022/12/06 08:59:34;;;;;;;16.13;5.38;;;;;;;3.92;100.00;101884.16;5053860;28;20029;-74
2022/12/06 09:01:59;;;;;;;15.10;5.13;;;;;;;3.87;100.00;101889.63;5069439;28;20020;-75
2022/12/06 09:04:26;;;;;;;16.38;5.45;;;;;;;3.82;100.00;101888.88;5069200;28;20036;-72
2022/12/06 09:06:51;;;;;;;18.90;6.32;;;;;;;3.80;100.00;101890.72;5070778;28;20075;-74
2022/12/06 09:09:17;;;;;;;16.38;5.95;;;;;;;3.79;100.00;101894.28;5071348;28;20056;-75
2022/12/06 09:11:44;;;;;;;18.95;7.10;;;;;;;3.85;100.00;101891.44;5056004;28;20037;-75
2022/12/06 09:14:13;;;;;;;23.15;6.78;;;;;;;3.89;100.00;101890.44;5068721;28;20029;-75
2022/12/06 09:16:41;;;;;;;18.02;6.38;;;;;;;3.95;100.00;101897.38;5077241;28;20029;-75
2022/12/06 09:19:06;;;;;;;19.25;6.53;;;;;;;3.98;100.00;101898.19;5074799;28;20024;-75
2022/12/06 09:21:33;;;;;;;20.45;6.55;;;;;;;4.04;100.00;101902.41;5058266;28;20133;-74
2022/12/06 09:23:59;;;;;;;17.70;6.60;;;;;;;4.08;100.00;101900.56;5053822;28;20024;-73
2022/12/06 09:26:25;;;;;;;16.27;5.78;;;;;;;4.09;100.00;101894.34;5074010;28;20051;-72
2022/12/06 09:28:53;;;;;;;20.42;6.85;;;;;;;4.15;100.00;101896.81;5070813;28;20024;-75
2022/12/06 09:31:18;;;;;;;23.88;7.97;;;;;;;4.16;100.00;101894.09;5073383;28;20034;-73
2022/12/06 09:33:44;;;;;;;20.33;5.78;;;;;;;4.19;100.00;101899.31;5076192;28;20111;-73
2022/12/06 09:36:18;;;;;;;18.05;6.00;;;;;;;4.25;100.00;101898.28;5060092;28;20033;-74
2022/12/06 09:38:46;;;;;;;20.30;6.97;;;;;;;4.27;100.00;101893.75;5059756;28;20061;-74
2022/12/06 09:41:37;;;;;;;19.80;5.75;;;;;;;4.33;100.00;101898.03;5065773;28;20025;-72
2022/12/06 09:44:13;;;;;;;23.20;6.45;;;;;;;4.36;100.00;101892.63;5069756;28;20099;-73
2022/12/06 09:46:41;;;;;;;18.42;5.82;;;;;;;4.38;100.00;101898.78;5058011;28;20029;-72
2022/12/06 09:49:14;;;;;;;17.95;6.32;;;;;;;4.39;100.00;101897.84;5063884;28;20366;-73
2022/12/06 09:51:58;;;;;;;17.38;5.78;;;;;;;4.42;100.00;101896.88;5054702;28;20056;-73
2022/12/06 09:54:47;;;;;;;17.40;6.05;;;;;;;4.44;100.00;101898.59;5067717;28;20033;-73
2022/12/06 09:57:23;;;;;;;16.95;5.43;;;;;;;4.47;100.00;101897.63;5066092;28;20115;-73
2022/12/06 10:00:04;;;;;;;19.40;6.07;;;;;;;4.51;100.00;101900.16;5058860;28;20809;-74
2022/12/06 10:02:54;;;;;;;18.50;5.63;;;;;;;4.58;100.00;101900.81;5060500;28;20029;-78
2022/12/06 10:05:40;;;;;;;18.40;5.38;;;;;;;4.63;100.00;101898.88;5057560;28;20100;-72
2022/12/06 10:08:36;;;;;;;16.92;6.10;;;;;;;4.71;100.00;101903.97;5063260;28;20052;-73
2022/12/06 10:11:26;;;;;;;20.58;6.07;;;;;;;4.71;100.00;101888.88;5058819;28;20108;-73
2022/12/06 10:14:27;;;;;;;16.98;5.57;;;;;;;4.75;100.00;101892.31;5060987;28;20033;-74
2022/12/06 10:17:11;;;;;;;15.15;5.32;;;;;;;4.76;100.00;101888.72;5062104;28;20036;-75
2022/12/06 10:20:12;;;;;;;19.83;5.28;;;;;;;4.71;100.00;101880.88;5058512;28;20107;-74
2022/12/06 10:23:06;;;;;;;17.50;5.35;;;;;;;4.68;100.00;101882.75;5061307;28;20103;-73
2022/12/06 10:26:03;;;;;;;15.65;4.93;;;;;;;4.67;100.00;101878.34;5056661;28;20107;-73
2022/12/06 10:28:44;;;;;;;14.70;5.28;;;;;;;4.64;100.00;101882.00;5056633;28;20253;-73
2022/12/06 10:31:20;;;;;;;17.02;5.43;;;;;;;4.66;100.00;101877.47;5069748;28;20036;-74
2022/12/06 10:33:59;;;;;;;19.63;5.38;;;;;;;4.72;100.00;101876.41;5070844;28;20059;-73
2022/12/06 10:36:44;;;;;;;15.00;5.35;;;;;;;4.75;100.00;101873.66;5057540;28;20032;-74
2022/12/06 10:39:43;;;;;;;17.58;5.72;;;;;;;4.81;100.00;101881.44;5052276;28;20036;-73
2022/12/06 10:42:30;;;;;;;13.02;4.47;;;;;;;4.86;100.00;101879.50;5056234;28;20090;-73
2022/12/06 10:45:01;;;;;;;18.90;5.43;;;;;;;4.86;100.00;101884.84;5053325;28;20520;-73
2022/12/06 10:47:41;;;;;;;15.02;5.22;;;;;;;4.89;100.00;101881.19;5059806;28;20040;-73
2022/12/06 10:50:13;;;;;;;18.17;4.63;;;;;;;4.94;100.00;101884.56;5054702;28;20144;-72
2022/12/06 10:52:41;;;;;;;14.60;5.05;;;;;;;4.96;100.00;101885.38;5055124;28;20369;-73
2022/12/06 10:55:09;;;;;;;12.45;4.00;;;;;;;4.96;100.00;101884.53;5052857;28;20108;-74
2022/12/06 10:57:57;;;;;;;14.88;4.63;;;;;;;4.98;100.00;101888.00;5055498;28;20025;-74
2022/12/06 11:00:25;;;;;;;13.02;3.88;;;;;;;4.99;100.00;101884.41;5056250;28;20024;-74
2022/12/06 11:03:02;;;;;;;15.00;4.50;;;;;;;5.01;100.00;101885.25;5061687;28;20028;-74
2022/12/06 11:05:55;;;;;;;12.10;4.28;;;;;;;5.02;100.00;101882.53;5067737;28;20058;-74
2022/12/06 11:08:27;;;;;;;14.57;4.18;;;;;;;5.02;100.00;101892.31;5068407;28;20020;-74
2022/12/06 11:10:54;;;;;;;15.00;4.13;;;;;;;5.02;100.00;101885.22;5053958;28;20029;-73
2022/12/06 11:13:24;;;;;;;13.30;4.07;;;;;;;5.07;100.00;101885.03;5052900;28;20040;-74
2022/12/06 11:16:22;;;;;;;;;;;;;;;5.15;100.00;101874.13;5060778;28;20117;-73
2022/12/06 11:18:48;;;;;;;8.85;3.15;;;;;;;5.20;100.00;101881.03;5007494;28;19916;-73
2022/12/06 11:21:20;;;;;;;12.73;3.88;;;;;;;5.28;100.00;101875.44;5054631;28;20157;-73
2022/12/06 11:24:18;;;;;;;12.32;3.72;;;;;;;5.35;100.00;101881.44;5068843;28;20024;-74
2022/12/06 11:27:01;;;;;;;14.75;4.00;;;;;;;5.43;100.00;101879.34;5060440;28;20052;-73
2022/12/06 11:29:27;;;;;;;13.48;4.30;;;;;;;5.49;100.00;101876.50;5059679;28;20021;-74
2022/12/06 11:32:00;;;;;;;16.23;4.63;;;;;;;5.51;100.00;101876.44;5057707;28;20024;-74
2022/12/06 11:34:36;;;;;;;13.48;4.22;;;;;;;5.54;99.64;101874.53;5053129;28;20033;-73
2022/12/06 11:37:04;;;;;;;12.73;3.95;;;;;;;5.59;98.63;101869.03;5052512;28;20064;-73
2022/12/06 11:39:30;;;;;;;18.27;4.50;;;;;;;5.66;99.22;101875.00;5053441;28;20032;-73
2022/12/06 11:42:00;;;;;;;15.85;4.28;;;;;;;5.75;99.20;101866.66;5050312;28;20024;-73
2022/12/06 11:44:28;;;;;;;16.75;4.05;;;;;;;5.79;95.68;101862.97;5052198;28;20159;-73
2022/12/06 11:46:56;;;;;;;15.68;3.72;;;;;;;5.85;95.50;101859.19;5052291;28;20021;-73
2022/12/06 11:49:37;;;;;;;10.98;3.40;;;;;;;5.89;97.30;101847.50;5050830;28;20025;-73
2022/12/06 11:52:08;;;;;;;14.65;3.95;;;;;;;5.94;95.44;101848.19;5053439;28;20048;-73
2022/12/06 11:54:42;;;;;;;13.15;3.80;;;;;;;5.95;95.54;101852.59;5051796;28;20031;-73
2022/12/06 11:57:20;;;;;;;12.95;3.75;;;;;;;5.93;93.30;101855.31;5056657;28;20040;-78
2022/12/06 12:00:19;;;;;;;13.07;3.75;;;;;;;5.92;94.34;101842.91;5053210;28;20037;-73